Time;durP1;ratioP1;P1;durP2;ratioP2;P2;SDS_P1;SDS_P2;PMS_P1;PMS_P2;Temp;Humidity;BMP_temperature;BMP_pressure;BME280_temperature;BME280_humidity;BME280_pressure;Samples;Min_cycle;Max_cycle;Signal;HPM_P1;HPM_P2
2023/11/29 00:01:45;;;;;;;24.95;13.35;;;7.50;99.60;;;;;;4266873;27;20043;-55
2023/11/29 00:03:47;;;;;;;25.35;14.43;;;7.40;99.70;;;;;;4266592;27;20038;-55
2023/11/29 00:05:49;;;;;;;25.88;15.40;;;7.50;99.90;;;;;;4266801;27;20043;-56
2023/11/29 00:07:51;;;;;;;25.80;12.77;;;7.40;99.70;;;;;;4266764;27;20085;-56
2023/11/29 00:09:53;;;;;;;27.73;14.23;;;7.50;99.90;;;;;;4266600;27;20122;-56
2023/11/29 00:11:56;;;;;;;24.30;12.95;;;7.30;99.80;;;;;;4248636;27;20488;-56
2023/11/29 00:13:58;;;;;;;28.13;14.80;;;7.40;99.90;;;;;;4248340;27;20047;-55
2023/11/29 00:16:00;;;;;;;22.95;12.20;;;7.30;99.80;;;;;;4266553;27;20052;-55
2023/11/29 00:18:03;;;;;;;23.52;12.55;;;7.40;99.90;;;;;;4266567;27;20410;-56
2023/11/29 00:20:07;;;;;;;17.77;9.88;;;7.60;99.90;;;;;;4266482;27;20053;-56
2023/11/29 00:22:10;;;;;;;16.73;8.48;;;7.70;99.90;;;;;;4266253;27;20125;-54
2023/11/29 00:24:12;;;;;;;20.20;8.70;;;7.90;99.90;;;;;;4248256;27;20043;-56
2023/11/29 00:26:14;;;;;;;16.00;8.85;;;7.90;99.40;;;;;;4266499;27;20138;-55
2023/11/29 00:28:16;;;;;;;13.98;7.90;;;8.00;99.60;;;;;;4266395;27;20046;-56
2023/11/29 00:30:18;;;;;;;13.30;7.15;;;8.10;99.50;;;;;;4266131;27;20043;-55
2023/11/29 00:32:21;;;;;;;15.73;7.03;;;8.10;99.40;;;;;;4266737;27;20043;-56
2023/11/29 00:34:24;;;;;;;15.05;7.40;;;8.10;99.20;;;;;;4266799;27;20067;-55
2023/11/29 00:36:26;;;;;;;19.95;7.00;;;8.00;99.20;;;;;;4266167;27;20042;-55
2023/11/29 00:38:28;;;;;;;11.82;7.03;;;8.00;99.50;;;;;;4266173;27;20066;-60
2023/11/29 00:40:30;;;;;;;12.13;6.82;;;8.10;99.60;;;;;;4266311;27;20330;-57
2023/11/29 00:42:32;;;;;;;11.38;6.13;;;8.20;99.70;;;;;;4266516;27;20049;-57
2023/11/29 00:44:35;;;;;;;12.40;6.55;;;8.20;98.90;;;;;;4258587;27;20047;-56
2023/11/29 00:46:37;;;;;;;21.83;8.30;;;8.30;99.10;;;;;;4266493;27;20035;-56
2023/11/29 00:48:39;;;;;;;13.07;6.90;;;8.30;98.90;;;;;;4265971;27;20494;-55
2023/11/29 00:50:42;;;;;;;9.75;6.10;;;8.40;99.20;;;;;;4265860;27;20093;-55
2023/11/29 00:52:45;;;;;;;11.27;6.45;;;8.30;98.60;;;;;;4265664;27;20161;-55
2023/11/29 00:54:47;;;;;;;13.40;6.90;;;8.30;98.50;;;;;;4265807;27;20067;-56
2023/11/29 00:56:49;;;;;;;11.38;6.30;;;8.10;98.70;;;;;;4265952;27;20053;-55
2023/11/29 00:58:51;;;;;;;11.75;6.32;;;8.10;99.00;;;;;;4267857;27;20049;-56
2023/11/29 01:00:57;;;;;;;12.23;6.40;;;8.20;98.90;;;;;;4267874;27;20074;-55
2023/11/29 01:02:59;;;;;;;14.07;6.18;;;8.10;98.90;;;;;;4249304;27;20043;-55
2023/11/29 01:05:01;;;;;;;11.73;5.95;;;8.00;99.00;;;;;;4267937;27;20091;-56
2023/11/29 01:07:05;;;;;;;13.48;6.53;;;7.90;99.50;;;;;;4267593;27;20042;-57
2023/11/29 01:09:07;;;;;;;10.20;6.22;;;8.00;99.10;;;;;;4266359;27;20495;-56
2023/11/29 01:11:09;;;;;;;12.38;5.97;;;8.00;99.10;;;;;;4266224;27;20516;-55
2023/11/29 01:13:12;;;;;;;11.15;5.97;;;8.10;99.50;;;;;;4266576;27;20046;-56
2023/11/29 01:15:14;;;;;;;9.63;5.63;;;8.10;98.80;;;;;;4247521;27;20121;-57
2023/11/29 01:17:16;;;;;;;14.68;5.75;;;8.00;99.50;;;;;;4265933;27;20050;-58
2023/11/29 01:19:23;;;;;;;14.13;6.55;;;8.00;99.40;;;;;;4265868;27;20049;-56
2023/11/29 01:21:25;;;;;;;12.50;5.72;;;8.10;99.60;;;;;;4265839;27;20043;-56
2023/11/29 01:23:37;;;;;;;10.07;6.50;;;8.20;99.60;;;;;;4265663;27;20042;-57
2023/11/29 01:25:40;;;;;;;11.85;6.13;;;8.20;98.70;;;;;;4265583;27;20402;-55
2023/11/29 01:27:42;;;;;;;14.48;6.07;;;8.20;99.40;;;;;;4265932;27;20627;-58
2023/11/29 01:29:44;;;;;;;11.70;6.50;;;8.30;98.80;;;;;;4265519;27;20053;-55
2023/11/29 01:31:46;;;;;;;11.77;5.88;;;8.10;98.50;;;;;;4265708;27;20042;-57
2023/11/29 01:33:48;;;;;;;10.55;5.63;;;8.10;99.60;;;;;;4264705;27;20070;-56
2023/11/29 01:35:51;;;;;;;9.68;5.50;;;8.20;99.20;;;;;;4265716;27;20043;-57
2023/11/29 01:37:53;;;;;;;11.18;6.28;;;8.20;98.90;;;;;;4265423;27;20047;-56
2023/11/29 01:39:57;;;;;;;13.27;6.10;;;8.00;99.10;;;;;;4265487;27;20050;-55
2023/11/29 01:41:59;;;;;;;12.10;5.82;;;7.80;99.30;;;;;;4265307;27;20046;-56
2023/11/29 01:44:01;;;;;;;11.30;5.22;;;7.80;99.90;;;;;;4265281;27;20053;-57
2023/11/29 01:46:05;;;;;;;12.73;6.35;;;8.00;99.50;;;;;;4247102;27;20069;-59
2023/11/29 01:48:07;;;;;;;13.95;5.45;;;8.00;99.30;;;;;;4265046;27;20054;-57
2023/11/29 01:50:12;;;;;;;11.18;4.90;;;8.10;99.80;;;;;;4265111;27;20126;-57
2023/11/29 01:52:14;;;;;;;9.50;5.45;;;8.30;99.90;;;;;;4265192;27;20046;-63
2023/11/29 01:54:16;;;;;;;10.68;5.15;;;8.20;99.50;;;;;;4265280;27;20066;-57
2023/11/29 01:56:21;;;;;;;9.00;5.38;;;8.40;99.40;;;;;;4265262;27;20129;-56
2023/11/29 01:58:25;;;;;;;11.48;5.60;;;8.40;98.80;;;;;;4265781;27;20492;-68
2023/11/29 02:00:27;;;;;;;10.88;4.85;;;8.30;99.40;;;;;;4266998;27;20038;-60
2023/11/29 02:02:30;;;;;;;9.98;3.90;;;8.30;99.40;;;;;;4247847;27;20419;-57
2023/11/29 02:04:32;;;;;;;13.60;4.70;;;8.20;99.80;;;;;;4267253;27;20050;-55
2023/11/29 02:06:34;;;;;;;9.63;4.43;;;8.10;99.50;;;;;;4267486;27;20047;-60
2023/11/29 02:08:37;;;;;;;12.05;4.63;;;8.40;99.70;;;;;;4267006;27;20125;-60
2023/11/29 02:10:40;;;;;;;10.50;4.90;;;8.20;99.30;;;;;;4266694;27;20060;-56
2023/11/29 02:12:43;;;;;;;6.85;4.35;;;8.20;99.50;;;;;;4266540;27;20051;-58
2023/11/29 02:14:45;;;;;;;8.27;4.03;;;8.30;99.90;;;;;;4267863;27;20395;-59
2023/11/29 02:16:48;;;;;;;7.85;4.15;;;8.40;99.40;;;;;;4267149;27;20050;-56
2023/11/29 02:18:50;;;;;;;12.40;3.97;;;8.50;99.40;;;;;;4266999;27;20042;-57
2023/11/29 02:20:52;;;;;;;7.65;4.03;;;8.40;99.30;;;;;;4267025;27;20053;-56
2023/11/29 02:22:59;;;;;;;8.82;3.47;;;8.50;99.30;;;;;;4267888;27;20372;-60
2023/11/29 02:25:04;;;;;;;9.15;3.20;;;8.50;99.20;;;;;;4266937;27;20042;-59
2023/11/29 02:27:06;;;;;;;7.93;2.58;;;8.50;99.10;;;;;;4267043;27;20060;-55
2023/11/29 02:29:08;;;;;;;9.23;3.40;;;8.40;99.00;;;;;;4249231;27;20112;-56
2023/11/29 02:31:10;;;;;;;5.40;3.03;;;8.30;99.10;;;;;;4266493;27;20050;-56
2023/11/29 02:33:12;;;;;;;11.55;3.92;;;8.20;99.10;;;;;;4265201;27;20046;-57
2023/11/29 02:35:15;;;;;;;6.63;3.30;;;8.30;98.40;;;;;;4265047;27;20084;-56
2023/11/29 02:37:16;;;;;;;8.13;3.22;;;8.30;99.20;;;;;;4265238;27;20039;-58
2023/11/29 02:39:18;;;;;;;8.32;3.45;;;8.30;98.80;;;;;;4264655;27;20066;-56
2023/11/29 02:41:22;;;;;;;10.80;3.22;;;8.30;99.20;;;;;;4264830;27;20053;-56
2023/11/29 02:43:24;;;;;;;6.88;2.78;;;8.10;99.00;;;;;;4264604;27;20043;-55
2023/11/29 02:45:26;;;;;;;9.20;3.15;;;8.00;99.70;;;;;;4264546;27;20099;-55
2023/11/29 02:47:28;;;;;;;8.23;2.63;;;7.90;99.60;;;;;;4267533;27;20046;-55
2023/11/29 02:49:30;;;;;;;6.72;3.47;;;8.00;99.90;;;;;;4249895;27;20039;-56
2023/11/29 02:51:33;;;;;;;7.47;2.80;;;8.10;99.70;;;;;;4267908;27;20061;-55
2023/11/29 02:53:35;;;;;;;10.95;3.13;;;8.00;99.40;;;;;;4267910;27;20039;-56
2023/11/29 02:55:37;;;;;;;6.88;2.53;;;8.00;99.60;;;;;;4267775;27;20047;-57
2023/11/29 02:57:40;;;;;;;8.93;2.90;;;8.20;99.70;;;;;;4268791;27;20047;-55
2023/11/29 02:59:42;;;;;;;8.63;2.92;;;8.10;99.40;;;;;;4268174;27;20134;-56
2023/11/29 03:01:45;;;;;;;11.10;2.85;;;8.00;99.80;;;;;;4267378;27;20425;-56
2023/11/29 03:03:47;;;;;;;8.27;2.85;;;8.00;99.80;;;;;;4267750;27;20047;-56
2023/11/29 03:05:49;;;;;;;5.78;2.70;;;8.10;99.40;;;;;;4267810;27;20043;-57
2023/11/29 03:07:51;;;;;;;7.68;2.88;;;8.20;99.70;;;;;;4268033;27;20055;-56
2023/11/29 03:09:53;;;;;;;10.40;2.80;;;8.20;99.60;;;;;;4268112;27;20066;-55
2023/11/29 03:11:55;;;;;;;6.68;2.80;;;8.20;99.70;;;;;;4267989;27;20049;-57
2023/11/29 03:13:59;;;;;;;9.35;2.90;;;8.00;99.90;;;;;;4250275;27;20080;-55
2023/11/29 03:16:02;;;;;;;9.18;3.00;;;8.00;99.90;;;;;;4269441;27;20483;-55
2023/11/29 03:18:05;;;;;;;8.35;2.65;;;8.10;99.90;;;;;;4269410;27;20050;-60
2023/11/29 03:20:09;;;;;;;15.00;5.60;;;8.20;99.90;;;;;;4269466;27;20533;-57
2023/11/29 03:22:11;;;;;;;19.10;5.67;;;8.20;99.40;;;;;;4268136;27;20091;-57
2023/11/29 03:24:13;;;;;;;17.17;7.05;;;8.10;99.80;;;;;;4267494;27;20050;-55
2023/11/29 03:26:15;;;;;;;11.77;6.78;;;8.10;99.80;;;;;;4267505;27;20049;-56
2023/11/29 03:28:17;;;;;;;11.50;6.47;;;8.10;99.70;;;;;;4267413;27;20043;-55
2023/11/29 03:30:20;;;;;;;15.38;7.53;;;8.20;99.90;;;;;;4267128;27;20053;-56
2023/11/29 03:32:22;;;;;;;18.00;8.60;;;8.30;99.90;;;;;;4267509;27;20078;-55
2023/11/29 03:34:24;;;;;;;16.92;8.82;;;8.20;99.90;;;;;;4249035;27;20043;-57
2023/11/29 03:36:27;;;;;;;21.38;9.27;;;8.10;99.50;;;;;;4267407;27;20042;-66
2023/11/29 03:38:29;;;;;;;17.75;8.90;;;8.10;99.90;;;;;;4267063;27;20046;-57
2023/11/29 03:40:31;;;;;;;17.77;9.05;;;8.00;99.90;;;;;;4266455;27;20479;-57
2023/11/29 03:42:33;;;;;;;17.20;8.80;;;8.10;99.90;;;;;;4266007;27;20050;-55
2023/11/29 03:44:36;;;;;;;17.98;8.73;;;8.00;99.90;;;;;;4258280;27;20125;-56
2023/11/29 03:46:40;;;;;;;18.40;8.88;;;7.80;99.90;;;;;;4266027;27;20042;-55
2023/11/29 03:48:42;;;;;;;19.23;8.70;;;7.90;99.90;;;;;;4266326;27;20046;-56
2023/11/29 03:50:44;;;;;;;15.35;8.52;;;8.00;99.90;;;;;;4266033;27;20043;-56
2023/11/29 03:52:46;;;;;;;15.80;8.63;;;8.00;99.90;;;;;;4266451;27;20491;-55
2023/11/29 03:54:48;;;;;;;18.13;8.85;;;8.10;99.90;;;;;;4266027;27;20403;-57
2023/11/29 03:56:50;;;;;;;18.50;8.57;;;8.10;99.90;;;;;;4265960;27;20047;-57
2023/11/29 03:58:52;;;;;;;16.15;7.78;;;8.10;99.90;;;;;;4266101;27;20045;-57
2023/11/29 04:00:56;;;;;;;25.77;9.38;;;8.10;99.90;;;;;;4248159;28;20066;-56
2023/11/29 04:03:00;;;;;;;17.55;8.82;;;8.10;99.90;;;;;;4266766;27;20114;-56
2023/11/29 04:05:02;;;;;;;15.20;8.70;;;8.10;99.90;;;;;;4267094;27;20043;-56
2023/11/29 04:07:07;;;;;;;19.10;8.05;;;8.00;99.90;;;;;;4265818;27;20062;-56
2023/11/29 04:09:09;;;;;;;15.73;7.60;;;8.00;99.90;;;;;;4266315;27;20408;-57
2023/11/29 04:11:11;;;;;;;12.75;6.63;;;8.00;99.90;;;;;;4265630;27;20043;-57
2023/11/29 04:13:13;;;;;;;12.82;6.30;;;8.00;99.90;;;;;;4265593;27;20051;-57
2023/11/29 04:15:16;;;;;;;14.25;6.50;;;8.10;99.90;;;;;;4265597;27;20050;-58
2023/11/29 04:17:18;;;;;;;13.15;5.70;;;8.10;99.90;;;;;;4265497;27;20072;-56
2023/11/29 04:19:21;;;;;;;15.85;6.13;;;8.10;99.90;;;;;;4265530;27;20091;-56
2023/11/29 04:21:25;;;;;;;13.73;6.10;;;8.00;99.90;;;;;;4265708;27;20050;-56
2023/11/29 04:23:29;;;;;;;11.68;6.00;;;8.00;99.90;;;;;;4265623;27;20122;-56
2023/11/29 04:25:32;;;;;;;15.25;6.55;;;8.00;99.90;;;;;;4265357;27;20045;-57
2023/11/29 04:27:34;;;;;;;17.95;6.38;;;7.80;99.90;;;;;;4265554;27;20103;-56
2023/11/29 04:29:36;;;;;;;12.05;6.07;;;7.70;99.90;;;;;;4265303;27;20043;-56
2023/11/29 04:31:39;;;;;;;12.30;5.75;;;7.90;99.90;;;;;;4265138;27;20051;-58
2023/11/29 04:33:41;;;;;;;9.38;5.05;;;7.80;99.90;;;;;;4265374;27;20042;-55
2023/11/29 04:35:44;;;;;;;17.58;6.80;;;7.80;99.90;;;;;;4265455;27;20047;-57
2023/11/29 04:37:46;;;;;;;15.00;6.18;;;7.70;99.90;;;;;;4265294;27;20043;-56
2023/11/29 04:39:48;;;;;;;10.25;5.38;;;7.60;99.90;;;;;;4266032;27;20071;-56
2023/11/29 04:41:50;;;;;;;12.18;5.65;;;7.60;99.90;;;;;;4247471;27;20413;-56
2023/11/29 04:43:53;;;;;;;9.27;4.70;;;7.80;99.90;;;;;;4260444;27;20039;-59
2023/11/29 04:45:55;;;;;;;15.00;5.70;;;7.80;99.90;;;;;;4266573;27;20051;-56
2023/11/29 04:47:57;;;;;;;11.35;5.90;;;7.80;99.90;;;;;;4266139;27;20039;-56
2023/11/29 04:50:00;;;;;;;10.60;5.18;;;7.70;99.90;;;;;;4266103;27;20077;-57
2023/11/29 04:52:03;;;;;;;11.00;5.00;;;7.80;99.90;;;;;;4266145;27;20484;-55
2023/11/29 04:54:06;;;;;;;11.50;4.50;;;7.90;99.90;;;;;;4266015;27;20051;-57
2023/11/29 04:56:09;;;;;;;8.15;4.47;;;8.00;99.90;;;;;;4248148;27;20050;-55
2023/11/29 04:58:12;;;;;;;11.55;4.95;;;7.90;99.90;;;;;;4247669;27;20516;-58
2023/11/29 05:00:14;;;;;;;8.80;4.60;;;7.90;99.90;;;;;;4247698;27;20155;-57
2023/11/29 05:02:18;;;;;;;8.68;5.07;;;8.00;99.90;;;;;;4266428;27;20099;-56
2023/11/29 05:04:20;;;;;;;11.43;4.95;;;7.90;99.90;;;;;;4266623;27;20074;-56
2023/11/29 05:06:26;;;;;;;9.57;4.63;;;7.80;99.90;;;;;;4266224;27;20070;-58
2023/11/29 05:08:29;;;;;;;13.43;4.60;;;7.80;99.90;;;;;;4266154;27;20049;-55
2023/11/29 05:10:31;;;;;;;10.23;4.93;;;7.70;99.90;;;;;;4265662;27;20043;-56
2023/11/29 05:12:33;;;;;;;12.15;4.45;;;7.60;99.90;;;;;;4265517;27;20039;-57
2023/11/29 05:14:36;;;;;;;9.48;4.43;;;7.70;99.90;;;;;;4265641;27;20053;-56
2023/11/29 05:16:38;;;;;;;8.63;4.13;;;7.70;99.90;;;;;;4265809;27;20121;-56
2023/11/29 05:18:40;;;;;;;8.38;3.92;;;7.70;99.90;;;;;;4265787;27;20444;-55
2023/11/29 05:20:43;;;;;;;9.77;4.30;;;7.70;99.90;;;;;;4265670;27;20090;-56
2023/11/29 05:22:45;;;;;;;10.05;4.53;;;7.80;99.90;;;;;;4265505;27;20074;-57
2023/11/29 05:24:48;;;;;;;9.90;4.03;;;7.80;99.90;;;;;;4265406;27;20057;-56
2023/11/29 05:26:52;;;;;;;11.80;4.80;;;7.90;99.90;;;;;;4265275;27;20480;-57
2023/11/29 05:28:55;;;;;;;8.43;4.05;;;7.80;99.90;;;;;;4265567;27;20081;-56
2023/11/29 05:30:57;;;;;;;5.82;3.88;;;7.70;99.90;;;;;;4266398;27;20042;-56
2023/11/29 05:32:59;;;;;;;8.65;4.03;;;7.60;99.90;;;;;;4265304;27;20071;-58
2023/11/29 05:35:01;;;;;;;8.35;3.85;;;7.70;99.90;;;;;;4247261;27;20043;-57
2023/11/29 05:37:03;;;;;;;7.75;4.15;;;7.70;99.90;;;;;;4265329;27;20125;-57
2023/11/29 05:39:08;;;;;;;11.48;4.15;;;7.80;99.90;;;;;;4265156;27;20047;-57
2023/11/29 05:41:13;;;;;;;8.65;3.72;;;7.90;99.90;;;;;;4265214;27;20068;-56
2023/11/29 05:43:15;;;;;;;9.55;3.85;;;7.80;99.90;;;;;;4261550;27;20058;-56
2023/11/29 05:45:18;;;;;;;8.35;3.90;;;7.80;99.90;;;;;;4261937;27;20046;-56
2023/11/29 05:47:20;;;;;;;10.05;3.67;;;7.80;99.90;;;;;;4265381;27;20055;-56
2023/11/29 05:49:22;;;;;;;6.45;2.90;;;7.80;99.90;;;;;;4265124;27;20103;-57
2023/11/29 05:51:26;;;;;;;6.90;2.95;;;7.70;99.90;;;;;;4265341;27;20133;-57
2023/11/29 05:53:28;;;;;;;7.80;3.08;;;7.70;99.90;;;;;;4265141;27;20054;-56
2023/11/29 05:55:31;;;;;;;9.35;3.00;;;7.70;99.90;;;;;;4265363;27;20074;-55
2023/11/29 05:57:36;;;;;;;5.95;3.30;;;7.70;99.90;;;;;;4264856;27;20501;-56
2023/11/29 05:59:38;;;;;;;5.80;2.78;;;7.90;99.90;;;;;;4265106;27;20046;-57
2023/11/29 06:01:40;;;;;;;9.98;3.30;;;7.90;99.90;;;;;;4265441;27;20407;-57
2023/11/29 06:03:42;;;;;;;5.70;2.80;;;8.00;99.90;;;;;;4265175;27;20524;-57
2023/11/29 06:05:45;;;;;;;6.97;3.00;;;8.10;99.90;;;;;;4265391;27;20050;-56
2023/11/29 06:07:48;;;;;;;5.63;2.80;;;8.20;99.90;;;;;;4264655;27;20062;-57
2023/11/29 06:09:50;;;;;;;9.13;3.33;;;8.20;99.90;;;;;;4264813;27;20046;-63
2023/11/29 06:11:52;;;;;;;8.77;2.90;;;8.20;99.70;;;;;;4265018;27;20038;-58
2023/11/29 06:13:56;;;;;;;6.53;2.88;;;8.10;99.90;;;;;;4265074;27;20046;-57
2023/11/29 06:15:58;;;;;;;8.57;2.85;;;8.20;99.90;;;;;;4265294;27;20078;-57
2023/11/29 06:18:00;;;;;;;9.45;2.72;;;8.20;99.90;;;;;;4246789;27;20097;-55
2023/11/29 06:20:09;;;;;;;9.35;3.55;;;8.20;99.90;;;;;;4264787;27;20046;-56
2023/11/29 06:22:11;;;;;;;7.55;2.80;;;8.30;99.90;;;;;;4264830;27;20051;-56
2023/11/29 06:24:13;;;;;;;9.40;3.17;;;8.30;99.90;;;;;;4264473;27;20039;-57
2023/11/29 06:26:18;;;;;;;10.20;3.95;;;8.40;99.90;;;;;;4264958;27;20049;-56
2023/11/29 06:28:20;;;;;;;8.60;3.17;;;8.20;99.90;;;;;;4265096;27;20043;-56
2023/11/29 06:30:24;;;;;;;12.95;3.15;;;8.30;99.90;;;;;;4247081;27;20148;-57
2023/11/29 06:32:26;;;;;;;9.02;3.30;;;8.30;99.90;;;;;;4265004;27;20491;-56
2023/11/29 06:34:28;;;;;;;8.38;3.15;;;8.20;99.80;;;;;;4264599;27;20054;-56
2023/11/29 06:36:30;;;;;;;7.57;2.60;;;8.30;99.90;;;;;;4264597;27;20117;-55
2023/11/29 06:38:37;;;;;;;10.30;2.88;;;8.40;99.90;;;;;;4264248;27;20047;-56
2023/11/29 06:40:40;;;;;;;6.78;2.90;;;8.50;99.90;;;;;;4246419;27;20886;-55
2023/11/29 06:42:51;;;;;;;10.43;2.97;;;8.30;99.90;;;;;;4264620;27;20155;-55
2023/11/29 06:44:53;;;;;;;12.32;2.78;;;8.40;99.90;;;;;;4257819;27;20070;-56
2023/11/29 06:46:58;;;;;;;7.55;2.83;;;8.40;99.90;;;;;;4264858;27;20532;-57
2023/11/29 06:49:01;;;;;;;8.02;3.22;;;8.50;99.90;;;;;;4264776;27;20153;-56
2023/11/29 06:51:05;;;;;;;9.82;3.13;;;8.60;99.70;;;;;;4265047;27;20043;-55
2023/11/29 06:53:07;;;;;;;12.57;3.28;;;8.40;99.80;;;;;;4264213;27;20047;-56
2023/11/29 06:55:12;;;;;;;8.02;3.42;;;8.30;99.50;;;;;;4265008;27;20460;-60
2023/11/29 06:57:14;;;;;;;6.88;2.55;;;8.20;99.80;;;;;;4264628;27;20043;-58
2023/11/29 06:59:16;;;;;;;9.88;2.70;;;8.10;99.90;;;;;;4265232;27;20070;-57
2023/11/29 07:01:18;;;;;;;10.05;2.70;;;8.20;99.90;;;;;;4266917;27;20397;-59
2023/11/29 07:03:22;;;;;;;9.50;2.88;;;8.20;99.90;;;;;;4266549;27;20474;-56
2023/11/29 07:05:28;;;;;;;12.35;3.45;;;8.30;99.90;;;;;;4265844;27;20072;-56
2023/11/29 07:07:30;;;;;;;8.20;3.28;;;8.20;99.90;;;;;;4264288;27;20079;-56
2023/11/29 07:09:32;;;;;;;8.45;3.58;;;8.10;99.90;;;;;;4264581;27;20054;-60
2023/11/29 07:11:36;;;;;;;8.95;3.22;;;8.20;99.90;;;;;;4264436;27;20047;-57
2023/11/29 07:13:38;;;;;;;7.65;3.33;;;8.40;99.90;;;;;;4263915;27;20085;-56
2023/11/29 07:15:40;;;;;;;7.85;3.50;;;8.20;99.90;;;;;;4264448;27;20050;-56
2023/11/29 07:17:42;;;;;;;9.82;3.30;;;8.10;99.90;;;;;;4264055;27;20074;-57
2023/11/29 07:19:47;;;;;;;7.78;3.28;;;8.10;99.90;;;;;;4264520;27;20106;-55
2023/11/29 07:21:49;;;;;;;;;;;8.20;99.90;;;;;;4263505;27;20070;-55
2023/11/29 07:23:51;;;;;;;8.57;3.42;;;8.20;99.90;;;;;;4264450;27;20017;-56
2023/11/29 07:25:54;;;;;;;8.18;3.83;;;8.10;99.90;;;;;;4264424;27;20551;-56
2023/11/29 07:27:56;;;;;;;13.55;3.65;;;8.10;99.90;;;;;;4264401;27;20055;-56
2023/11/29 07:29:58;;;;;;;11.15;3.08;;;8.10;99.90;;;;;;4264493;27;20054;-57
2023/11/29 07:32:00;;;;;;;8.25;3.20;;;8.10;99.90;;;;;;4264763;27;20043;-56
2023/11/29 07:34:03;;;;;;;12.25;3.28;;;7.90;99.90;;;;;;4267629;27;20042;-55
2023/11/29 07:36:10;;;;;;;9.65;3.50;;;8.00;99.90;;;;;;4267088;27;20050;-56
2023/11/29 07:38:12;;;;;;;13.57;4.30;;;7.90;99.90;;;;;;4267355;27;20096;-56
2023/11/29 07:40:14;;;;;;;8.77;3.47;;;8.00;99.90;;;;;;4267061;27;20463;-56
2023/11/29 07:42:16;;;;;;;16.02;3.35;;;8.20;99.90;;;;;;4267636;27;20165;-55
2023/11/29 07:44:18;;;;;;;5.47;3.08;;;8.30;99.90;;;;;;4261878;27;20039;-55
2023/11/29 07:46:20;;;;;;;8.32;3.15;;;8.40;99.80;;;;;;4254543;27;20047;-55
2023/11/29 07:48:24;;;;;;;7.03;3.00;;;8.50;99.90;;;;;;4267070;27;20070;-56
2023/11/29 07:50:27;;;;;;;9.10;3.43;;;8.50;99.80;;;;;;4266721;27;20050;-56
2023/11/29 07:52:30;;;;;;;6.72;2.63;;;8.50;99.90;;;;;;4266950;27;20470;-57
2023/11/29 07:54:32;;;;;;;10.07;3.28;;;8.50;99.80;;;;;;4266945;27;20050;-55
2023/11/29 07:56:34;;;;;;;12.75;3.80;;;8.50;99.80;;;;;;4267120;27;20050;-56
2023/11/29 07:58:36;;;;;;;7.70;3.58;;;8.50;99.50;;;;;;4267332;27;20066;-56
2023/11/29 08:00:38;;;;;;;12.18;3.67;;;8.60;99.70;;;;;;4267224;27;20047;-57
2023/11/29 08:02:41;;;;;;;11.13;3.38;;;8.40;99.70;;;;;;4266834;27;20043;-56
2023/11/29 08:04:43;;;;;;;9.88;3.50;;;8.50;99.60;;;;;;4267157;27;20047;-55
2023/11/29 08:06:45;;;;;;;14.38;4.13;;;8.50;99.50;;;;;;4248276;27;20460;-56
2023/11/29 08:08:49;;;;;;;11.70;3.58;;;8.60;99.60;;;;;;4267294;27;20400;-57
2023/11/29 08:10:51;;;;;;;9.55;3.60;;;8.60;99.30;;;;;;4267930;27;20523;-57
2023/11/29 08:12:54;;;;;;;7.57;3.55;;;8.60;99.40;;;;;;4268609;27;20050;-57
2023/11/29 08:14:56;;;;;;;10.00;3.53;;;8.60;99.30;;;;;;4249600;27;20539;-56
2023/11/29 08:16:58;;;;;;;6.88;3.85;;;8.60;99.30;;;;;;4267146;27;20050;-59
2023/11/29 08:19:00;;;;;;;8.93;3.67;;;8.60;99.40;;;;;;4267065;27;20434;-55
2023/11/29 08:21:03;;;;;;;10.90;4.13;;;8.50;99.40;;;;;;4266637;27;20057;-57
2023/11/29 08:23:06;;;;;;;13.27;3.85;;;8.70;99.80;;;;;;4266348;27;20074;-57
2023/11/29 08:25:09;;;;;;;9.35;3.70;;;8.70;99.40;;;;;;4266620;27;20046;-56
2023/11/29 08:27:12;;;;;;;8.40;3.43;;;8.60;99.40;;;;;;4266640;27;20043;-56
2023/11/29 08:29:16;;;;;;;13.40;4.18;;;8.50;99.20;;;;;;4266302;27;20046;-56
2023/11/29 08:31:18;;;;;;;8.15;3.20;;;8.50;99.70;;;;;;4266351;27;20091;-55
2023/11/29 08:33:20;;;;;;;15.02;4.13;;;8.60;99.80;;;;;;4266304;27;20095;-55
2023/11/29 08:35:23;;;;;;;7.72;3.67;;;8.60;99.40;;;;;;4266172;27;20047;-55
2023/11/29 08:37:25;;;;;;;8.95;3.78;;;8.60;99.40;;;;;;4266376;27;20052;-56
2023/11/29 08:39:27;;;;;;;13.10;4.07;;;8.60;99.60;;;;;;4266137;27;20089;-57
2023/11/29 08:41:30;;;;;;;5.93;3.10;;;8.70;99.40;;;;;;4266473;27;20155;-56
2023/11/29 08:43:33;;;;;;;14.35;4.10;;;8.90;99.40;;;;;;4240866;27;20039;-55
2023/11/29 08:45:35;;;;;;;11.27;3.95;;;9.00;99.40;;;;;;4265371;27;20043;-56
2023/11/29 08:47:37;;;;;;;8.00;3.45;;;8.90;99.50;;;;;;4257358;27;20135;-58
2023/11/29 08:49:39;;;;;;;5.95;2.75;;;9.10;99.90;;;;;;4249803;27;20046;-56
2023/11/29 08:51:41;;;;;;;12.43;3.80;;;9.40;99.30;;;;;;4250485;27;20046;-57
2023/11/29 08:53:44;;;;;;;10.05;4.07;;;9.60;98.50;;;;;;4253936;27;20479;-56
2023/11/29 08:55:46;;;;;;;13.90;3.55;;;9.30;98.60;;;;;;4266214;27;20085;-56
2023/11/29 08:57:50;;;;;;;9.20;3.85;;;9.30;98.50;;;;;;4265913;27;20103;-55
2023/11/29 08:59:55;;;;;;;9.43;3.88;;;9.20;98.80;;;;;;4263350;27;20053;-55
2023/11/29 09:01:57;;;;;;;12.10;4.05;;;9.50;99.40;;;;;;4265277;27;20046;-55
2023/11/29 09:03:59;;;;;;;9.63;3.40;;;9.60;98.30;;;;;;4263664;27;20045;-55
2023/11/29 09:06:02;;;;;;;10.55;3.10;;;10.00;98.40;;;;;;4261478;27;20043;-56
2023/11/29 09:08:05;;;;;;;9.63;3.30;;;10.20;97.60;;;;;;4253156;27;20070;-56
2023/11/29 09:10:07;;;;;;;12.05;2.92;;;10.30;97.10;;;;;;4251575;27;20043;-57
2023/11/29 09:12:10;;;;;;;6.93;3.05;;;10.40;97.90;;;;;;4255427;27;20043;-57
2023/11/29 09:14:14;;;;;;;8.95;3.75;;;10.50;97.30;;;;;;4261304;27;20042;-56
2023/11/29 09:16:16;;;;;;;17.13;3.35;;;10.60;97.10;;;;;;4258615;27;20077;-58
2023/11/29 09:18:18;;;;;;;8.73;3.33;;;10.70;97.00;;;;;;4263029;27;20467;-57
2023/11/29 09:20:20;;;;;;;12.80;3.30;;;10.50;97.00;;;;;;4242226;27;20043;-57
2023/11/29 09:22:22;;;;;;;24.83;4.28;;;10.60;97.10;;;;;;4263649;27;20134;-57
2023/11/29 09:24:25;;;;;;;14.90;4.07;;;10.60;97.30;;;;;;4257133;27;20668;-57
2023/11/29 09:26:28;;;;;;;12.82;3.65;;;10.80;97.10;;;;;;4261581;27;20047;-56
2023/11/29 09:28:30;;;;;;;14.98;4.18;;;10.70;96.40;;;;;;4265422;27;20110;-56
2023/11/29 09:30:34;;;;;;;17.70;4.35;;;10.60;96.40;;;;;;4243298;27;20085;-57
2023/11/29 09:32:36;;;;;;;14.30;4.15;;;10.60;96.80;;;;;;4261616;27;20043;-57
2023/11/29 09:34:38;;;;;;;13.93;3.63;;;10.50;96.80;;;;;;4260583;27;20042;-57
2023/11/29 09:36:40;;;;;;;15.98;3.55;;;10.70;96.50;;;;;;4260863;27;20459;-56
2023/11/29 09:38:42;;;;;;;11.32;3.83;;;10.70;96.50;;;;;;4247722;27;20053;-57
2023/11/29 09:40:45;;;;;;;9.82;3.20;;;10.80;96.50;;;;;;4253886;27;20479;-63
2023/11/29 09:42:47;;;;;;;6.10;3.25;;;10.80;95.90;;;;;;4258883;27;20073;-56
2023/11/29 09:44:51;;;;;;;10.05;3.58;;;11.00;95.80;;;;;;4256866;27;20047;-56
2023/11/29 09:46:56;;;;;;;11.93;4.15;;;11.10;95.50;;;;;;4260312;27;20492;-62
2023/11/29 09:48:58;;;;;;;10.95;4.55;;;11.00;95.80;;;;;;4264959;27;20073;-57
2023/11/29 09:51:01;;;;;;;16.10;5.07;;;11.20;95.60;;;;;;4259328;27;20051;-54
2023/11/29 09:53:03;;;;;;;11.95;3.40;;;10.90;96.00;;;;;;4257761;27;20430;-54
2023/11/29 09:55:06;;;;;;;8.65;3.33;;;10.80;95.90;;;;;;4263502;27;20051;-58
2023/11/29 09:57:08;;;;;;;18.52;4.25;;;11.00;96.10;;;;;;4260750;27;20060;-57
2023/11/29 09:59:10;;;;;;;12.40;4.40;;;11.00;95.90;;;;;;4264155;27;20122;-57
2023/11/29 10:01:12;;;;;;;9.88;3.60;;;10.70;96.20;;;;;;4260777;27;20126;-58
2023/11/29 10:03:16;;;;;;;8.88;3.40;;;10.70;96.30;;;;;;4256881;27;20042;-58
2023/11/29 10:05:19;;;;;;;8.25;3.33;;;11.00;95.80;;;;;;4264684;27;20047;-56
2023/11/29 10:07:22;;;;;;;6.47;2.88;;;11.00;95.00;;;;;;4251558;27;20039;-58
2023/11/29 10:09:25;;;;;;;12.48;3.78;;;11.00;95.40;;;;;;4262545;27;20077;-57
2023/11/29 10:11:29;;;;;;;7.72;3.30;;;11.20;95.40;;;;;;4261145;27;20432;-58
2023/11/29 10:13:32;;;;;;;6.88;3.33;;;11.20;94.80;;;;;;4255288;27;20054;-55
2023/11/29 10:15:35;;;;;;;11.45;4.63;;;11.40;95.20;;;;;;4256331;27;20371;-57
2023/11/29 10:17:37;;;;;;;10.40;4.72;;;11.50;95.00;;;;;;4242744;27;20441;-57
2023/11/29 10:19:42;;;;;;;16.00;4.95;;;11.30;95.20;;;;;;4262919;27;20039;-57
2023/11/29 10:21:46;;;;;;;13.90;5.15;;;11.30;95.20;;;;;;4260434;27;20090;-57
2023/11/29 10:23:51;;;;;;;22.33;8.30;;;11.20;95.50;;;;;;4254788;27;20045;-57
2023/11/29 10:25:56;;;;;;;17.23;5.70;;;11.40;95.40;;;;;;4263695;27;20039;-58
2023/11/29 10:27:58;;;;;;;10.85;4.90;;;11.70;95.10;;;;;;4258176;27;20564;-57
2023/11/29 10:30:00;;;;;;;19.17;5.00;;;11.60;95.00;;;;;;4253822;27;20043;-57
2023/11/29 10:32:08;;;;;;;12.00;4.60;;;11.80;95.10;;;;;;4249085;27;20051;-55
2023/11/29 10:34:10;;;;;;;12.93;4.35;;;11.70;94.80;;;;;;4255816;27;20047;-58
2023/11/29 10:36:17;;;;;;;8.82;4.20;;;11.90;94.30;;;;;;4246492;28;20082;-54
2023/11/29 10:38:23;;;;;;;7.78;3.95;;;11.90;94.00;;;;;;4257785;27;20078;-55
2023/11/29 10:40:26;;;;;;;8.02;3.55;;;11.90;94.30;;;;;;4254598;27;20103;-55
2023/11/29 10:42:28;;;;;;;11.32;4.20;;;11.80;94.80;;;;;;4260093;27;20041;-54